sensor_id;sensor_type;location;lat;lon;timestamp;temperature;humidity
69436;SHT31;56625;54.322;18.582;2024-01-30T00:00:03;1.98;79.78
69436;SHT31;56625;54.322;18.582;2024-01-30T00:02:33;1.98;79.96
69436;SHT31;56625;54.322;18.582;2024-01-30T00:05:01;1.98;80.08
69436;SHT31;56625;54.322;18.582;2024-01-30T00:07:31;1.94;79.94
69436;SHT31;56625;54.322;18.582;2024-01-30T00:10:00;1.87;80.04
69436;SHT31;56625;54.322;18.582;2024-01-30T00:12:29;1.85;80.25
69436;SHT31;56625;54.322;18.582;2024-01-30T00:14:57;1.87;80.46
69436;SHT31;56625;54.322;18.582;2024-01-30T00:17:26;1.90;80.59
69436;SHT31;56625;54.322;18.582;2024-01-30T00:19:54;1.95;80.57
69436;SHT31;56625;54.322;18.582;2024-01-30T00:22:23;2.02;80.46
69436;SHT31;56625;54.322;18.582;2024-01-30T00:24:51;2.06;80.37
69436;SHT31;56625;54.322;18.582;2024-01-30T00:27:20;2.13;80.30
69436;SHT31;56625;54.322;18.582;2024-01-30T00:29:49;2.18;80.26
69436;SHT31;56625;54.322;18.582;2024-01-30T00:32:17;2.25;80.11
69436;SHT31;56625;54.322;18.582;2024-01-30T00:34:47;2.29;79.94
69436;SHT31;56625;54.322;18.582;2024-01-30T00:37:18;2.35;79.87
69436;SHT31;56625;54.322;18.582;2024-01-30T00:39:46;2.39;79.74
69436;SHT31;56625;54.322;18.582;2024-01-30T00:42:15;2.42;79.57
69436;SHT31;56625;54.322;18.582;2024-01-30T00:44:43;2.47;79.50
69436;SHT31;56625;54.322;18.582;2024-01-30T00:47:11;2.50;79.38
69436;SHT31;56625;54.322;18.582;2024-01-30T00:49:39;2.53;79.36
69436;SHT31;56625;54.322;18.582;2024-01-30T00:52:08;2.56;79.29
69436;SHT31;56625;54.322;18.582;2024-01-30T00:54:36;2.60;79.20
69436;SHT31;56625;54.322;18.582;2024-01-30T00:57:04;2.68;78.96
69436;SHT31;56625;54.322;18.582;2024-01-30T00:59:33;2.74;78.77
69436;SHT31;56625;54.322;18.582;2024-01-30T01:02:01;2.78;78.63
69436;SHT31;56625;54.322;18.582;2024-01-30T01:04:32;2.84;78.46
69436;SHT31;56625;54.322;18.582;2024-01-30T01:07:00;2.90;78.36
69436;SHT31;56625;54.322;18.582;2024-01-30T01:09:29;2.93;78.24
69436;SHT31;56625;54.322;18.582;2024-01-30T01:11:57;2.97;78.16
69436;SHT31;56625;54.322;18.582;2024-01-30T01:14:25;3.04;78.00
69436;SHT31;56625;54.322;18.582;2024-01-30T01:16:54;3.10;77.76
69436;SHT31;56625;54.322;18.582;2024-01-30T01:19:22;3.14;77.58
69436;SHT31;56625;54.322;18.582;2024-01-30T01:21:51;3.18;77.37
69436;SHT31;56625;54.322;18.582;2024-01-30T01:24:19;3.23;77.07
69436;SHT31;56625;54.322;18.582;2024-01-30T01:26:47;3.28;76.80
69436;SHT31;56625;54.322;18.582;2024-01-30T01:29:16;3.33;76.62
69436;SHT31;56625;54.322;18.582;2024-01-30T01:31:44;3.37;76.30
69436;SHT31;56625;54.322;18.582;2024-01-30T01:34:13;3.42;76.14
69436;SHT31;56625;54.322;18.582;2024-01-30T01:36:42;3.46;75.95
69436;SHT31;56625;54.322;18.582;2024-01-30T01:39:10;3.48;75.81
69436;SHT31;56625;54.322;18.582;2024-01-30T01:41:39;3.51;75.86
69436;SHT31;56625;54.322;18.582;2024-01-30T01:44:07;3.47;75.93
69436;SHT31;56625;54.322;18.582;2024-01-30T01:46:36;3.36;75.88
69436;SHT31;56625;54.322;18.582;2024-01-30T01:49:05;3.19;75.96
69436;SHT31;56625;54.322;18.582;2024-01-30T01:51:35;2.99;76.34
69436;SHT31;56625;54.322;18.582;2024-01-30T01:54:04;2.82;76.70
69436;SHT31;56625;54.322;18.582;2024-01-30T01:56:33;2.68;77.12
69436;SHT31;56625;54.322;18.582;2024-01-30T01:59:06;2.58;77.55
69436;SHT31;56625;54.322;18.582;2024-01-30T02:01:36;2.50;77.81
69436;SHT31;56625;54.322;18.582;2024-01-30T02:04:05;2.41;78.01
69436;SHT31;56625;54.322;18.582;2024-01-30T02:06:34;2.34;78.25
69436;SHT31;56625;54.322;18.582;2024-01-30T02:09:02;2.24;78.42
69436;SHT31;56625;54.322;18.582;2024-01-30T02:11:33;2.15;78.68
69436;SHT31;56625;54.322;18.582;2024-01-30T02:14:02;2.07;78.89
69436;SHT31;56625;54.322;18.582;2024-01-30T02:16:32;2.02;79.25
69436;SHT31;56625;54.322;18.582;2024-01-30T02:19:00;1.99;79.45
69436;SHT31;56625;54.322;18.582;2024-01-30T02:21:28;1.96;79.57
69436;SHT31;56625;54.322;18.582;2024-01-30T02:23:57;1.94;79.68
69436;SHT31;56625;54.322;18.582;2024-01-30T02:26:27;1.94;79.79
69436;SHT31;56625;54.322;18.582;2024-01-30T02:28:55;1.91;79.81
69436;SHT31;56625;54.322;18.582;2024-01-30T02:31:24;1.89;79.90
69436;SHT31;56625;54.322;18.582;2024-01-30T02:33:54;1.85;79.92
69436;SHT31;56625;54.322;18.582;2024-01-30T02:36:22;1.81;80.11
69436;SHT31;56625;54.322;18.582;2024-01-30T02:38:50;1.80;80.31
69436;SHT31;56625;54.322;18.582;2024-01-30T02:41:18;1.80;80.52
69436;SHT31;56625;54.322;18.582;2024-01-30T02:43:47;1.83;80.66
69436;SHT31;56625;54.322;18.582;2024-01-30T02:46:15;1.81;80.57
69436;SHT31;56625;54.322;18.582;2024-01-30T02:48:44;1.82;80.70
69436;SHT31;56625;54.322;18.582;2024-01-30T02:51:15;1.78;80.78
69436;SHT31;56625;54.322;18.582;2024-01-30T02:53:44;1.76;80.80
69436;SHT31;56625;54.322;18.582;2024-01-30T02:56:13;1.75;80.91
69436;SHT31;56625;54.322;18.582;2024-01-30T02:58:41;1.74;81.05
69436;SHT31;56625;54.322;18.582;2024-01-30T03:01:11;1.75;80.99
69436;SHT31;56625;54.322;18.582;2024-01-30T03:03:40;1.73;80.89
69436;SHT31;56625;54.322;18.582;2024-01-30T03:06:08;1.70;80.89
69436;SHT31;56625;54.322;18.582;2024-01-30T03:08:37;1.67;81.00
69436;SHT31;56625;54.322;18.582;2024-01-30T03:11:05;1.66;81.12
69436;SHT31;56625;54.322;18.582;2024-01-30T03:13:33;1.64;81.13
69436;SHT31;56625;54.322;18.582;2024-01-30T03:16:02;1.60;81.16
69436;SHT31;56625;54.322;18.582;2024-01-30T03:18:31;1.58;81.23
69436;SHT31;56625;54.322;18.582;2024-01-30T03:20:59;1.57;81.38
69436;SHT31;56625;54.322;18.582;2024-01-30T03:23:27;1.55;81.43
69436;SHT31;56625;54.322;18.582;2024-01-30T03:25:55;1.52;81.33
69436;SHT31;56625;54.322;18.582;2024-01-30T03:28:24;1.46;81.31
69436;SHT31;56625;54.322;18.582;2024-01-30T03:30:52;1.44;81.57
69436;SHT31;56625;54.322;18.582;2024-01-30T03:33:20;1.45;81.67
69436;SHT31;56625;54.322;18.582;2024-01-30T03:35:49;1.45;81.75
69436;SHT31;56625;54.322;18.582;2024-01-30T03:38:17;1.41;81.70
69436;SHT31;56625;54.322;18.582;2024-01-30T03:40:45;1.42;81.80
69436;SHT31;56625;54.322;18.582;2024-01-30T03:43:13;1.43;81.94
69436;SHT31;56625;54.322;18.582;2024-01-30T03:45:42;1.41;81.89
69436;SHT31;56625;54.322;18.582;2024-01-30T03:48:10;1.40;81.93
69436;SHT31;56625;54.322;18.582;2024-01-30T03:50:38;1.35;81.86
69436;SHT31;56625;54.322;18.582;2024-01-30T03:53:07;1.36;82.10
69436;SHT31;56625;54.322;18.582;2024-01-30T03:55:35;1.38;82.27
69436;SHT31;56625;54.322;18.582;2024-01-30T03:58:03;1.38;82.12
69436;SHT31;56625;54.322;18.582;2024-01-30T04:00:31;1.34;81.76
69436;SHT31;56625;54.322;18.582;2024-01-30T04:03:00;1.25;81.48
69436;SHT31;56625;54.322;18.582;2024-01-30T04:05:28;1.19;81.53
69436;SHT31;56625;54.322;18.582;2024-01-30T04:07:57;1.08;81.35
69436;SHT31;56625;54.322;18.582;2024-01-30T04:10:25;0.98;81.49
69436;SHT31;56625;54.322;18.582;2024-01-30T04:12:54;0.94;81.75
69436;SHT31;56625;54.322;18.582;2024-01-30T04:15:23;0.90;81.84
69436;SHT31;56625;54.322;18.582;2024-01-30T04:17:51;0.87;81.91
69436;SHT31;56625;54.322;18.582;2024-01-30T04:20:20;0.83;81.97
69436;SHT31;56625;54.322;18.582;2024-01-30T04:22:48;0.80;82.09
69436;SHT31;56625;54.322;18.582;2024-01-30T04:25:17;0.76;82.04
69436;SHT31;56625;54.322;18.582;2024-01-30T04:27:46;0.70;82.15
69436;SHT31;56625;54.322;18.582;2024-01-30T04:30:14;0.68;82.35
69436;SHT31;56625;54.322;18.582;2024-01-30T04:32:45;0.69;82.59
69436;SHT31;56625;54.322;18.582;2024-01-30T04:35:14;0.73;82.70
69436;SHT31;56625;54.322;18.582;2024-01-30T04:37:43;0.75;82.72
69436;SHT31;56625;54.322;18.582;2024-01-30T04:40:12;0.73;82.70
69436;SHT31;56625;54.322;18.582;2024-01-30T04:42:40;0.73;82.74
69436;SHT31;56625;54.322;18.582;2024-01-30T04:45:09;0.73;82.70
69436;SHT31;56625;54.322;18.582;2024-01-30T04:47:37;0.71;82.64
69436;SHT31;56625;54.322;18.582;2024-01-30T04:50:07;0.66;82.61
69436;SHT31;56625;54.322;18.582;2024-01-30T04:52:36;0.63;82.81
69436;SHT31;56625;54.322;18.582;2024-01-30T04:55:05;0.66;83.04
69436;SHT31;56625;54.322;18.582;2024-01-30T04:57:33;0.68;83.11
69436;SHT31;56625;54.322;18.582;2024-01-30T05:00:02;0.67;83.02
69436;SHT31;56625;54.322;18.582;2024-01-30T05:02:31;0.67;83.07
69436;SHT31;56625;54.322;18.582;2024-01-30T05:04:59;0.69;83.10
69436;SHT31;56625;54.322;18.582;2024-01-30T05:07:27;0.70;83.03
69436;SHT31;56625;54.322;18.582;2024-01-30T05:09:56;0.70;82.94
69436;SHT31;56625;54.322;18.582;2024-01-30T05:12:26;0.69;82.94
69436;SHT31;56625;54.322;18.582;2024-01-30T05:14:54;0.68;82.93
69436;SHT31;56625;54.322;18.582;2024-01-30T05:17:23;0.68;82.93
69436;SHT31;56625;54.322;18.582;2024-01-30T05:19:51;0.68;82.86
69436;SHT31;56625;54.322;18.582;2024-01-30T05:22:20;0.63;82.75
69436;SHT31;56625;54.322;18.582;2024-01-30T05:24:48;0.63;82.92
69436;SHT31;56625;54.322;18.582;2024-01-30T05:27:17;0.61;82.88
69436;SHT31;56625;54.322;18.582;2024-01-30T05:29:45;0.56;82.80
69436;SHT31;56625;54.322;18.582;2024-01-30T05:32:13;0.55;82.94
69436;SHT31;56625;54.322;18.582;2024-01-30T05:34:41;0.55;83.18
69436;SHT31;56625;54.322;18.582;2024-01-30T05:37:09;0.57;83.29
69436;SHT31;56625;54.322;18.582;2024-01-30T05:39:41;0.60;83.43
69436;SHT31;56625;54.322;18.582;2024-01-30T05:42:09;0.63;83.50
69436;SHT31;56625;54.322;18.582;2024-01-30T05:44:37;0.65;83.42
69436;SHT31;56625;54.322;18.582;2024-01-30T05:47:06;0.67;83.46
69436;SHT31;56625;54.322;18.582;2024-01-30T05:49:34;0.70;83.60
69436;SHT31;56625;54.322;18.582;2024-01-30T05:52:03;0.71;83.44
69436;SHT31;56625;54.322;18.582;2024-01-30T05:54:32;0.69;83.43
69436;SHT31;56625;54.322;18.582;2024-01-30T05:57:00;0.71;83.48
69436;SHT31;56625;54.322;18.582;2024-01-30T05:59:28;0.71;83.33
69436;SHT31;56625;54.322;18.582;2024-01-30T06:01:56;0.70;83.31
69436;SHT31;56625;54.322;18.582;2024-01-30T06:04:24;0.68;83.18
69436;SHT31;56625;54.322;18.582;2024-01-30T06:06:53;0.68;83.26
69436;SHT31;56625;54.322;18.582;2024-01-30T06:09:21;0.72;83.40
69436;SHT31;56625;54.322;18.582;2024-01-30T06:11:49;0.72;83.27
69436;SHT31;56625;54.322;18.582;2024-01-30T06:14:17;0.70;83.22
69436;SHT31;56625;54.322;18.582;2024-01-30T06:16:45;0.69;83.21
69436;SHT31;56625;54.322;18.582;2024-01-30T06:19:13;0.68;83.26
69436;SHT31;56625;54.322;18.582;2024-01-30T06:21:41;0.68;83.29
69436;SHT31;56625;54.322;18.582;2024-01-30T06:24:10;0.69;83.37
69436;SHT31;56625;54.322;18.582;2024-01-30T06:26:38;0.71;83.37
69436;SHT31;56625;54.322;18.582;2024-01-30T06:29:06;0.73;83.43
69436;SHT31;56625;54.322;18.582;2024-01-30T06:31:41;0.75;83.48
69436;SHT31;56625;54.322;18.582;2024-01-30T06:34:10;0.78;83.47
69436;SHT31;56625;54.322;18.582;2024-01-30T06:36:40;0.80;83.41
69436;SHT31;56625;54.322;18.582;2024-01-30T06:39:08;0.82;83.37
69436;SHT31;56625;54.322;18.582;2024-01-30T06:41:36;0.79;83.13
69436;SHT31;56625;54.322;18.582;2024-01-30T06:44:04;0.77;83.04
69436;SHT31;56625;54.322;18.582;2024-01-30T06:46:34;0.75;83.08
69436;SHT31;56625;54.322;18.582;2024-01-30T06:49:06;0.77;83.22
69436;SHT31;56625;54.322;18.582;2024-01-30T06:51:34;0.80;83.30
69436;SHT31;56625;54.322;18.582;2024-01-30T06:54:02;0.82;83.28
69436;SHT31;56625;54.322;18.582;2024-01-30T06:56:31;0.84;83.16
69436;SHT31;56625;54.322;18.582;2024-01-30T06:58:59;0.87;83.11
69436;SHT31;56625;54.322;18.582;2024-01-30T07:01:27;0.86;83.02
69436;SHT31;56625;54.322;18.582;2024-01-30T07:03:57;0.85;82.93
69436;SHT31;56625;54.322;18.582;2024-01-30T07:06:26;0.82;82.83
69436;SHT31;56625;54.322;18.582;2024-01-30T07:08:54;0.82;82.93
69436;SHT31;56625;54.322;18.582;2024-01-30T07:11:22;0.77;82.67
69436;SHT31;56625;54.322;18.582;2024-01-30T07:13:51;0.71;82.86
69436;SHT31;56625;54.322;18.582;2024-01-30T07:16:19;0.72;83.12
69436;SHT31;56625;54.322;18.582;2024-01-30T07:18:48;0.76;83.35
69436;SHT31;56625;54.322;18.582;2024-01-30T07:21:17;0.83;83.50
69436;SHT31;56625;54.322;18.582;2024-01-30T07:23:45;0.87;83.43
69436;SHT31;56625;54.322;18.582;2024-01-30T07:26:13;0.91;83.44
69436;SHT31;56625;54.322;18.582;2024-01-30T07:28:41;0.97;83.46
69436;SHT31;56625;54.322;18.582;2024-01-30T07:31:10;1.04;83.50
69436;SHT31;56625;54.322;18.582;2024-01-30T07:33:42;1.12;83.48
69436;SHT31;56625;54.322;18.582;2024-01-30T07:36:10;1.20;83.44
69436;SHT31;56625;54.322;18.582;2024-01-30T07:38:38;1.29;83.52
69436;SHT31;56625;54.322;18.582;2024-01-30T07:41:06;1.41;83.48
69436;SHT31;56625;54.322;18.582;2024-01-30T07:43:35;1.50;83.36
69436;SHT31;56625;54.322;18.582;2024-01-30T07:46:10;1.61;83.21
69436;SHT31;56625;54.322;18.582;2024-01-30T07:48:38;1.70;82.97
69436;SHT31;56625;54.322;18.582;2024-01-30T07:51:07;1.77;82.68
69436;SHT31;56625;54.322;18.582;2024-01-30T07:53:35;1.77;82.44
69436;SHT31;56625;54.322;18.582;2024-01-30T07:56:03;1.82;82.48
69436;SHT31;56625;54.322;18.582;2024-01-30T07:58:34;1.88;82.58
69436;SHT31;56625;54.322;18.582;2024-01-30T08:01:02;1.95;82.52
69436;SHT31;56625;54.322;18.582;2024-01-30T08:03:30;2.01;82.42
69436;SHT31;56625;54.322;18.582;2024-01-30T08:05:59;2.07;82.30
69436;SHT31;56625;54.322;18.582;2024-01-30T08:08:27;2.15;82.22
69436;SHT31;56625;54.322;18.582;2024-01-30T08:10:55;2.25;82.18
69436;SHT31;56625;54.322;18.582;2024-01-30T08:13:24;2.33;81.78
69436;SHT31;56625;54.322;18.582;2024-01-30T08:15:52;2.39;81.12
69436;SHT31;56625;54.322;18.582;2024-01-30T08:18:20;2.44;80.61
69436;SHT31;56625;54.322;18.582;2024-01-30T08:20:48;2.50;80.31
69436;SHT31;56625;54.322;18.582;2024-01-30T08:23:17;2.58;80.31
69436;SHT31;56625;54.322;18.582;2024-01-30T08:25:46;2.65;80.26
69436;SHT31;56625;54.322;18.582;2024-01-30T08:28:14;2.74;80.30
69436;SHT31;56625;54.322;18.582;2024-01-30T08:30:46;2.83;80.30
69436;SHT31;56625;54.322;18.582;2024-01-30T08:33:14;2.96;80.44
69436;SHT31;56625;54.322;18.582;2024-01-30T08:35:43;3.11;80.50
69436;SHT31;56625;54.322;18.582;2024-01-30T08:38:12;3.25;80.42
69436;SHT31;56625;54.322;18.582;2024-01-30T08:40:40;3.39;80.22
69436;SHT31;56625;54.322;18.582;2024-01-30T08:43:11;3.51;79.94
69436;SHT31;56625;54.322;18.582;2024-01-30T08:45:41;3.64;79.71
69436;SHT31;56625;54.322;18.582;2024-01-30T08:48:12;3.74;79.47
69436;SHT31;56625;54.322;18.582;2024-01-30T08:50:41;3.84;79.21
69436;SHT31;56625;54.322;18.582;2024-01-30T08:53:13;3.93;79.07
69436;SHT31;56625;54.322;18.582;2024-01-30T08:55:44;4.05;78.95
69436;SHT31;56625;54.322;18.582;2024-01-30T08:58:16;4.18;78.66
69436;SHT31;56625;54.322;18.582;2024-01-30T09:00:50;4.32;78.68
69436;SHT31;56625;54.322;18.582;2024-01-30T09:03:20;4.49;78.43
69436;SHT31;56625;54.322;18.582;2024-01-30T09:05:48;4.64;77.91
69436;SHT31;56625;54.322;18.582;2024-01-30T09:08:16;4.75;77.58
69436;SHT31;56625;54.322;18.582;2024-01-30T09:10:44;4.85;77.27
69436;SHT31;56625;54.322;18.582;2024-01-30T09:13:13;4.91;76.83
69436;SHT31;56625;54.322;18.582;2024-01-30T09:15:42;4.94;76.52
69436;SHT31;56625;54.322;18.582;2024-01-30T09:18:10;4.97;76.43
69436;SHT31;56625;54.322;18.582;2024-01-30T09:20:40;4.98;76.10
69436;SHT31;56625;54.322;18.582;2024-01-30T09:23:09;5.00;76.08
69436;SHT31;56625;54.322;18.582;2024-01-30T09:25:39;5.03;75.62
69436;SHT31;56625;54.322;18.582;2024-01-30T09:28:09;5.03;75.53
69436;SHT31;56625;54.322;18.582;2024-01-30T09:30:38;5.06;75.28
69436;SHT31;56625;54.322;18.582;2024-01-30T09:33:10;5.07;75.26
69436;SHT31;56625;54.322;18.582;2024-01-30T09:35:39;5.08;75.14
69436;SHT31;56625;54.322;18.582;2024-01-30T09:38:11;5.11;75.20
69436;SHT31;56625;54.322;18.582;2024-01-30T09:40:43;5.15;75.16
69436;SHT31;56625;54.322;18.582;2024-01-30T09:43:24;5.18;74.95
69436;SHT31;56625;54.322;18.582;2024-01-30T09:46:02;5.21;74.95
69436;SHT31;56625;54.322;18.582;2024-01-30T09:48:36;5.30;74.96
69436;SHT31;56625;54.322;18.582;2024-01-30T09:51:09;5.39;74.83
69436;SHT31;56625;54.322;18.582;2024-01-30T09:53:40;5.46;74.51
69436;SHT31;56625;54.322;18.582;2024-01-30T09:56:14;5.50;74.44
69436;SHT31;56625;54.322;18.582;2024-01-30T09:58:48;5.60;74.28
69436;SHT31;56625;54.322;18.582;2024-01-30T10:01:19;5.70;74.31
69436;SHT31;56625;54.322;18.582;2024-01-30T10:03:50;5.84;74.09
69436;SHT31;56625;54.322;18.582;2024-01-30T10:06:24;5.97;73.80
69436;SHT31;56625;54.322;18.582;2024-01-30T10:08:57;6.09;73.61
69436;SHT31;56625;54.322;18.582;2024-01-30T10:11:26;6.19;73.05
69436;SHT31;56625;54.322;18.582;2024-01-30T10:13:57;6.25;72.97
69436;SHT31;56625;54.322;18.582;2024-01-30T10:16:28;6.39;72.98
69436;SHT31;56625;54.322;18.582;2024-01-30T10:18:59;6.53;72.77
69436;SHT31;56625;54.322;18.582;2024-01-30T10:21:31;6.69;72.69
69436;SHT31;56625;54.322;18.582;2024-01-30T10:24:01;6.82;72.18
69436;SHT31;56625;54.322;18.582;2024-01-30T10:26:32;6.89;71.61
69436;SHT31;56625;54.322;18.582;2024-01-30T10:29:02;6.91;71.42
69436;SHT31;56625;54.322;18.582;2024-01-30T10:31:34;6.95;71.28
69436;SHT31;56625;54.322;18.582;2024-01-30T10:34:05;6.95;71.02
69436;SHT31;56625;54.322;18.582;2024-01-30T10:36:50;6.95;71.17
69436;SHT31;56625;54.322;18.582;2024-01-30T10:39:44;7.02;71.02
69436;SHT31;56625;54.322;18.582;2024-01-30T10:42:17;7.12;71.00
69436;SHT31;56625;54.322;18.582;2024-01-30T10:45:07;7.19;70.51
69436;SHT31;56625;54.322;18.582;2024-01-30T10:47:52;7.29;70.45
69436;SHT31;56625;54.322;18.582;2024-01-30T10:50:26;7.39;70.31
69436;SHT31;56625;54.322;18.582;2024-01-30T10:52:56;7.46;70.25
69436;SHT31;56625;54.322;18.582;2024-01-30T10:55:30;7.55;70.06
69436;SHT31;56625;54.322;18.582;2024-01-30T10:58:03;7.58;69.48
69436;SHT31;56625;54.322;18.582;2024-01-30T11:00:36;7.61;69.56
69436;SHT31;56625;54.322;18.582;2024-01-30T11:03:09;7.68;69.42
69436;SHT31;56625;54.322;18.582;2024-01-30T11:05:43;7.76;69.14
69436;SHT31;56625;54.322;18.582;2024-01-30T11:08:22;7.87;68.97
69436;SHT31;56625;54.322;18.582;2024-01-30T11:10:58;7.94;68.34
69436;SHT31;56625;54.322;18.582;2024-01-30T11:13:29;7.95;67.87
69436;SHT31;56625;54.322;18.582;2024-01-30T11:16:04;7.96;68.04
69436;SHT31;56625;54.322;18.582;2024-01-30T11:18:36;8.02;67.97
69436;SHT31;56625;54.322;18.582;2024-01-30T11:21:07;8.12;67.57
69436;SHT31;56625;54.322;18.582;2024-01-30T11:23:38;8.17;67.23
69436;SHT31;56625;54.322;18.582;2024-01-30T11:26:07;8.23;67.32
69436;SHT31;56625;54.322;18.582;2024-01-30T11:28:38;8.27;66.89
69436;SHT31;56625;54.322;18.582;2024-01-30T11:31:07;8.25;66.97
69436;SHT31;56625;54.322;18.582;2024-01-30T11:33:36;8.35;66.99
69436;SHT31;56625;54.322;18.582;2024-01-30T11:36:04;8.37;66.23
69436;SHT31;56625;54.322;18.582;2024-01-30T11:38:35;8.36;65.83
69436;SHT31;56625;54.322;18.582;2024-01-30T11:41:03;8.31;65.48
69436;SHT31;56625;54.322;18.582;2024-01-30T11:43:32;8.31;65.46
69436;SHT31;56625;54.322;18.582;2024-01-30T11:46:01;8.36;66.11
69436;SHT31;56625;54.322;18.582;2024-01-30T11:48:30;8.41;65.39
69436;SHT31;56625;54.322;18.582;2024-01-30T11:50:58;8.33;64.91
69436;SHT31;56625;54.322;18.582;2024-01-30T11:53:26;8.30;65.56
69436;SHT31;56625;54.322;18.582;2024-01-30T11:55:55;8.32;65.69
69436;SHT31;56625;54.322;18.582;2024-01-30T11:58:24;8.36;65.97
69436;SHT31;56625;54.322;18.582;2024-01-30T12:00:56;8.39;65.48
69436;SHT31;56625;54.322;18.582;2024-01-30T12:03:25;8.35;64.79
69436;SHT31;56625;54.322;18.582;2024-01-30T12:05:57;8.26;64.62
69436;SHT31;56625;54.322;18.582;2024-01-30T12:08:27;8.25;65.27
69436;SHT31;56625;54.322;18.582;2024-01-30T12:10:58;8.25;65.42
69436;SHT31;56625;54.322;18.582;2024-01-30T12:13:26;8.31;65.78
69436;SHT31;56625;54.322;18.582;2024-01-30T12:16:00;8.36;65.59
69436;SHT31;56625;54.322;18.582;2024-01-30T12:18:31;8.41;65.68
69436;SHT31;56625;54.322;18.582;2024-01-30T12:21:02;8.48;65.64
69436;SHT31;56625;54.322;18.582;2024-01-30T12:23:30;8.53;65.53
69436;SHT31;56625;54.322;18.582;2024-01-30T12:25:59;8.59;65.23
69436;SHT31;56625;54.322;18.582;2024-01-30T12:28:27;8.60;64.92
69436;SHT31;56625;54.322;18.582;2024-01-30T12:30:56;8.61;65.09
69436;SHT31;56625;54.322;18.582;2024-01-30T12:33:29;8.69;65.15
69436;SHT31;56625;54.322;18.582;2024-01-30T12:36:01;8.77;65.34
69436;SHT31;56625;54.322;18.582;2024-01-30T12:38:30;8.85;64.99
69436;SHT31;56625;54.322;18.582;2024-01-30T12:40:59;8.89;65.05
69436;SHT31;56625;54.322;18.582;2024-01-30T12:43:27;9.02;65.39
69436;SHT31;56625;54.322;18.582;2024-01-30T12:46:05;9.10;65.02
69436;SHT31;56625;54.322;18.582;2024-01-30T12:48:34;9.19;65.08
69436;SHT31;56625;54.322;18.582;2024-01-30T12:51:02;9.30;64.89
69436;SHT31;56625;54.322;18.582;2024-01-30T12:53:32;9.35;63.75
69436;SHT31;56625;54.322;18.582;2024-01-30T12:56:00;9.40;63.46
69436;SHT31;56625;54.322;18.582;2024-01-30T12:58:28;9.40;62.19
69436;SHT31;56625;54.322;18.582;2024-01-30T13:00:56;9.35;62.43
69436;SHT31;56625;54.322;18.582;2024-01-30T13:03:25;9.39;62.83
69436;SHT31;56625;54.322;18.582;2024-01-30T13:05:54;9.40;63.21
69436;SHT31;56625;54.322;18.582;2024-01-30T13:08:23;9.40;61.96
69436;SHT31;56625;54.322;18.582;2024-01-30T13:10:52;9.47;61.52
69436;SHT31;56625;54.322;18.582;2024-01-30T13:13:22;9.57;60.87
69436;SHT31;56625;54.322;18.582;2024-01-30T13:15:50;9.44;59.71
69436;SHT31;56625;54.322;18.582;2024-01-30T13:18:18;9.21;60.41
69436;SHT31;56625;54.322;18.582;2024-01-30T13:20:47;9.03;61.17
69436;SHT31;56625;54.322;18.582;2024-01-30T13:23:15;8.91;61.73
69436;SHT31;56625;54.322;18.582;2024-01-30T13:25:43;8.80;61.99
69436;SHT31;56625;54.322;18.582;2024-01-30T13:28:11;8.73;62.79
69436;SHT31;56625;54.322;18.582;2024-01-30T13:30:39;8.66;62.69
69436;SHT31;56625;54.322;18.582;2024-01-30T13:33:07;8.58;62.88
69436;SHT31;56625;54.322;18.582;2024-01-30T13:35:35;8.44;63.21
69436;SHT31;56625;54.322;18.582;2024-01-30T13:38:04;8.26;63.47
69436;SHT31;56625;54.322;18.582;2024-01-30T13:40:32;8.09;64.10
69436;SHT31;56625;54.322;18.582;2024-01-30T13:43:00;7.96;64.64
69436;SHT31;56625;54.322;18.582;2024-01-30T13:45:28;7.89;65.20
69436;SHT31;56625;54.322;18.582;2024-01-30T13:47:56;7.85;65.45
69436;SHT31;56625;54.322;18.582;2024-01-30T13:50:25;7.78;65.63
69436;SHT31;56625;54.322;18.582;2024-01-30T13:52:53;7.71;65.89
69436;SHT31;56625;54.322;18.582;2024-01-30T13:55:25;7.65;66.05
69436;SHT31;56625;54.322;18.582;2024-01-30T13:57:53;7.58;66.21
69436;SHT31;56625;54.322;18.582;2024-01-30T14:00:22;7.53;66.51
69436;SHT31;56625;54.322;18.582;2024-01-30T14:02:53;7.44;66.59
69436;SHT31;56625;54.322;18.582;2024-01-30T14:05:25;7.32;66.78
69436;SHT31;56625;54.322;18.582;2024-01-30T14:07:58;7.20;67.08
69436;SHT31;56625;54.322;18.582;2024-01-30T14:10:27;7.09;67.38
69436;SHT31;56625;54.322;18.582;2024-01-30T14:12:56;7.02;67.60
69436;SHT31;56625;54.322;18.582;2024-01-30T14:15:24;6.95;67.79
69436;SHT31;56625;54.322;18.582;2024-01-30T14:17:56;6.90;67.98
69436;SHT31;56625;54.322;18.582;2024-01-30T14:20:26;6.79;68.04
69436;SHT31;56625;54.322;18.582;2024-01-30T14:22:54;6.73;68.28
69436;SHT31;56625;54.322;18.582;2024-01-30T14:25:24;6.65;68.51
69436;SHT31;56625;54.322;18.582;2024-01-30T14:27:53;6.57;68.67
69436;SHT31;56625;54.322;18.582;2024-01-30T14:30:21;6.50;68.78
69436;SHT31;56625;54.322;18.582;2024-01-30T14:32:49;6.45;68.93
69436;SHT31;56625;54.322;18.582;2024-01-30T14:35:19;6.40;69.08
69436;SHT31;56625;54.322;18.582;2024-01-30T14:37:48;6.33;69.28
69436;SHT31;56625;54.322;18.582;2024-01-30T14:40:17;6.27;69.45
69436;SHT31;56625;54.322;18.582;2024-01-30T14:42:45;6.20;69.66
69436;SHT31;56625;54.322;18.582;2024-01-30T14:45:14;6.12;69.79
69436;SHT31;56625;54.322;18.582;2024-01-30T14:47:42;6.09;69.94
69436;SHT31;56625;54.322;18.582;2024-01-30T14:50:11;6.06;70.03
69436;SHT31;56625;54.322;18.582;2024-01-30T14:52:39;5.99;70.12
69436;SHT31;56625;54.322;18.582;2024-01-30T14:55:08;5.95;70.22
69436;SHT31;56625;54.322;18.582;2024-01-30T14:57:37;5.91;70.40
69436;SHT31;56625;54.322;18.582;2024-01-30T15:00:06;5.88;70.50
69436;SHT31;56625;54.322;18.582;2024-01-30T15:02:35;5.82;70.62
69436;SHT31;56625;54.322;18.582;2024-01-30T15:05:03;5.75;70.82
69436;SHT31;56625;54.322;18.582;2024-01-30T15:07:32;5.69;71.03
69436;SHT31;56625;54.322;18.582;2024-01-30T15:10:07;5.60;71.22
69436;SHT31;56625;54.322;18.582;2024-01-30T15:12:38;5.53;71.46
69436;SHT31;56625;54.322;18.582;2024-01-30T15:15:07;5.46;71.61
69436;SHT31;56625;54.322;18.582;2024-01-30T15:17:37;5.43;71.70
69436;SHT31;56625;54.322;18.582;2024-01-30T15:20:07;5.38;71.81
69436;SHT31;56625;54.322;18.582;2024-01-30T15:22:35;5.32;72.06
69436;SHT31;56625;54.322;18.582;2024-01-30T15:25:03;5.28;72.17
69436;SHT31;56625;54.322;18.582;2024-01-30T15:27:33;5.23;72.27
69436;SHT31;56625;54.322;18.582;2024-01-30T15:30:02;5.18;72.35
69436;SHT31;56625;54.322;18.582;2024-01-30T15:32:35;5.12;72.63
69436;SHT31;56625;54.322;18.582;2024-01-30T15:35:04;5.08;72.65
69436;SHT31;56625;54.322;18.582;2024-01-30T15:37:33;5.02;72.79
69436;SHT31;56625;54.322;18.582;2024-01-30T15:40:02;4.97;72.95
69436;SHT31;56625;54.322;18.582;2024-01-30T15:42:31;4.93;73.07